sensor_id;sensor_type;location;lat;lon;timestamp;temperature;humidity
35690;DHT22;26977;44.830;-0.674;2022-10-16T00:01:39;15.90;99.90
35690;DHT22;26977;44.830;-0.674;2022-10-16T00:04:04;15.80;99.90
35690;DHT22;26977;44.830;-0.674;2022-10-16T00:06:31;15.80;99.90
35690;DHT22;26977;44.830;-0.674;2022-10-16T00:08:57;15.80;99.90
35690;DHT22;26977;44.830;-0.674;2022-10-16T00:11:26;15.90;99.90
35690;DHT22;26977;44.830;-0.674;2022-10-16T00:13:57;15.80;99.90
35690;DHT22;26977;44.830;-0.674;2022-10-16T00:16:24;15.80;99.90
35690;DHT22;26977;44.830;-0.674;2022-10-16T00:18:50;15.70;99.90
35690;DHT22;26977;44.830;-0.674;2022-10-16T00:21:19;15.70;99.90
35690;DHT22;26977;44.830;-0.674;2022-10-16T00:23:45;15.60;99.90
35690;DHT22;26977;44.830;-0.674;2022-10-16T00:26:15;15.60;99.90
35690;DHT22;26977;44.830;-0.674;2022-10-16T00:28:41;15.50;99.90
35690;DHT22;26977;44.830;-0.674;2022-10-16T00:31:09;15.50;99.90
35690;DHT22;26977;44.830;-0.674;2022-10-16T00:33:36;15.40;99.90
35690;DHT22;26977;44.830;-0.674;2022-10-16T00:36:03;15.40;99.90
35690;DHT22;26977;44.830;-0.674;2022-10-16T00:38:29;15.30;99.90
35690;DHT22;26977;44.830;-0.674;2022-10-16T00:40:55;15.40;99.90
35690;DHT22;26977;44.830;-0.674;2022-10-16T00:46:37;15.50;99.90
35690;DHT22;26977;44.830;-0.674;2022-10-16T00:49:10;15.70;99.90
35690;DHT22;26977;44.830;-0.674;2022-10-16T00:51:55;15.70;99.90
35690;DHT22;26977;44.830;-0.674;2022-10-16T00:54:26;15.80;99.90
35690;DHT22;26977;44.830;-0.674;2022-10-16T00:56:53;15.90;99.90
35690;DHT22;26977;44.830;-0.674;2022-10-16T00:59:24;15.90;99.90
35690;DHT22;26977;44.830;-0.674;2022-10-16T01:01:51;16.00;99.90
35690;DHT22;26977;44.830;-0.674;2022-10-16T01:04:17;16.10;99.90
35690;DHT22;26977;44.830;-0.674;2022-10-16T01:09:26;16.20;99.90
35690;DHT22;26977;44.830;-0.674;2022-10-16T01:15:42;16.40;99.90
35690;DHT22;26977;44.830;-0.674;2022-10-16T01:18:05;16.40;99.90
35690;DHT22;26977;44.830;-0.674;2022-10-16T01:20:31;16.30;99.90
35690;DHT22;26977;44.830;-0.674;2022-10-16T01:28:17;16.30;99.90
35690;DHT22;26977;44.830;-0.674;2022-10-16T01:30:45;16.10;99.90
35690;DHT22;26977;44.830;-0.674;2022-10-16T01:33:19;16.10;99.90
35690;DHT22;26977;44.830;-0.674;2022-10-16T01:35:50;16.10;99.90
35690;DHT22;26977;44.830;-0.674;2022-10-16T01:38:38;16.20;99.90
35690;DHT22;26977;44.830;-0.674;2022-10-16T01:41:09;16.20;99.90
35690;DHT22;26977;44.830;-0.674;2022-10-16T01:43:42;16.20;99.90
35690;DHT22;26977;44.830;-0.674;2022-10-16T01:46:10;16.10;99.90
35690;DHT22;26977;44.830;-0.674;2022-10-16T01:48:38;16.10;99.90
35690;DHT22;26977;44.830;-0.674;2022-10-16T01:51:11;15.90;99.90
35690;DHT22;26977;44.830;-0.674;2022-10-16T01:53:41;15.90;99.90
35690;DHT22;26977;44.830;-0.674;2022-10-16T01:56:10;15.80;99.90
35690;DHT22;26977;44.830;-0.674;2022-10-16T01:58:46;15.70;99.90
35690;DHT22;26977;44.830;-0.674;2022-10-16T02:01:15;15.60;99.90
35690;DHT22;26977;44.830;-0.674;2022-10-16T02:03:43;15.60;99.90
35690;DHT22;26977;44.830;-0.674;2022-10-16T02:06:10;15.60;99.90
35690;DHT22;26977;44.830;-0.674;2022-10-16T02:08:37;15.70;99.90
35690;DHT22;26977;44.830;-0.674;2022-10-16T02:11:04;15.70;99.90
35690;DHT22;26977;44.830;-0.674;2022-10-16T02:13:41;15.60;99.90
35690;DHT22;26977;44.830;-0.674;2022-10-16T02:16:11;15.50;99.90
35690;DHT22;26977;44.830;-0.674;2022-10-16T02:18:38;15.50;99.90
35690;DHT22;26977;44.830;-0.674;2022-10-16T02:21:23;15.40;99.90
35690;DHT22;26977;44.830;-0.674;2022-10-16T02:24:11;15.30;99.90
35690;DHT22;26977;44.830;-0.674;2022-10-16T02:26:49;15.40;99.90
35690;DHT22;26977;44.830;-0.674;2022-10-16T02:29:18;15.30;99.90
35690;DHT22;26977;44.830;-0.674;2022-10-16T02:31:48;15.30;99.90
35690;DHT22;26977;44.830;-0.674;2022-10-16T02:34:15;15.30;99.90
35690;DHT22;26977;44.830;-0.674;2022-10-16T02:36:42;15.30;99.90
35690;DHT22;26977;44.830;-0.674;2022-10-16T02:39:08;15.20;99.90
35690;DHT22;26977;44.830;-0.674;2022-10-16T02:41:35;15.10;99.90
35690;DHT22;26977;44.830;-0.674;2022-10-16T02:44:00;15.10;99.90
35690;DHT22;26977;44.830;-0.674;2022-10-16T02:46:26;15.00;99.90
35690;DHT22;26977;44.830;-0.674;2022-10-16T02:48:52;15.00;99.90
35690;DHT22;26977;44.830;-0.674;2022-10-16T02:51:17;14.90;99.90
35690;DHT22;26977;44.830;-0.674;2022-10-16T02:53:43;14.90;99.90
35690;DHT22;26977;44.830;-0.674;2022-10-16T02:56:09;15.00;99.90
35690;DHT22;26977;44.830;-0.674;2022-10-16T02:58:34;15.30;99.90
35690;DHT22;26977;44.830;-0.674;2022-10-16T03:01:00;15.20;99.90
35690;DHT22;26977;44.830;-0.674;2022-10-16T03:03:26;15.10;99.90
35690;DHT22;26977;44.830;-0.674;2022-10-16T03:05:51;15.20;99.90
35690;DHT22;26977;44.830;-0.674;2022-10-16T03:08:17;15.20;99.90
35690;DHT22;26977;44.830;-0.674;2022-10-16T03:10:48;15.10;99.90
35690;DHT22;26977;44.830;-0.674;2022-10-16T03:13:17;15.00;99.90
35690;DHT22;26977;44.830;-0.674;2022-10-16T03:15:45;15.00;99.90
35690;DHT22;26977;44.830;-0.674;2022-10-16T03:18:11;15.00;99.90
35690;DHT22;26977;44.830;-0.674;2022-10-16T03:20:37;14.90;99.90
35690;DHT22;26977;44.830;-0.674;2022-10-16T03:23:03;14.90;99.90
35690;DHT22;26977;44.830;-0.674;2022-10-16T03:25:29;15.10;99.90
35690;DHT22;26977;44.830;-0.674;2022-10-16T03:27:55;15.00;99.90
35690;DHT22;26977;44.830;-0.674;2022-10-16T03:30:20;15.00;99.90
35690;DHT22;26977;44.830;-0.674;2022-10-16T03:32:46;14.80;99.90
35690;DHT22;26977;44.830;-0.674;2022-10-16T03:35:12;14.80;99.90
35690;DHT22;26977;44.830;-0.674;2022-10-16T03:37:38;14.70;99.90
35690;DHT22;26977;44.830;-0.674;2022-10-16T03:40:04;14.60;99.90
35690;DHT22;26977;44.830;-0.674;2022-10-16T03:42:30;14.60;99.90
35690;DHT22;26977;44.830;-0.674;2022-10-16T03:44:55;14.60;99.90
35690;DHT22;26977;44.830;-0.674;2022-10-16T03:47:21;14.50;99.90
35690;DHT22;26977;44.830;-0.674;2022-10-16T03:49:49;14.60;99.90
35690;DHT22;26977;44.830;-0.674;2022-10-16T03:52:15;14.60;99.90
35690;DHT22;26977;44.830;-0.674;2022-10-16T03:54:41;14.50;99.90
35690;DHT22;26977;44.830;-0.674;2022-10-16T03:57:07;14.40;99.90
35690;DHT22;26977;44.830;-0.674;2022-10-16T03:59:32;14.30;99.90
35690;DHT22;26977;44.830;-0.674;2022-10-16T04:01:58;14.30;99.90
35690;DHT22;26977;44.830;-0.674;2022-10-16T04:04:23;14.30;99.90
35690;DHT22;26977;44.830;-0.674;2022-10-16T04:06:50;14.20;99.90
35690;DHT22;26977;44.830;-0.674;2022-10-16T04:09:16;14.40;99.90
35690;DHT22;26977;44.830;-0.674;2022-10-16T04:11:42;14.40;99.90
35690;DHT22;26977;44.830;-0.674;2022-10-16T04:14:08;14.30;99.90
35690;DHT22;26977;44.830;-0.674;2022-10-16T04:16:33;14.30;99.90
35690;DHT22;26977;44.830;-0.674;2022-10-16T04:18:59;14.40;99.90
35690;DHT22;26977;44.830;-0.674;2022-10-16T04:21:25;14.50;99.90
35690;DHT22;26977;44.830;-0.674;2022-10-16T04:23:50;14.50;99.90
35690;DHT22;26977;44.830;-0.674;2022-10-16T04:26:16;14.60;99.90
35690;DHT22;26977;44.830;-0.674;2022-10-16T04:28:42;14.60;99.90
35690;DHT22;26977;44.830;-0.674;2022-10-16T04:31:08;14.60;99.90
35690;DHT22;26977;44.830;-0.674;2022-10-16T04:33:34;14.70;99.90
35690;DHT22;26977;44.830;-0.674;2022-10-16T04:36:00;14.80;99.90
35690;DHT22;26977;44.830;-0.674;2022-10-16T04:38:27;14.80;99.90
35690;DHT22;26977;44.830;-0.674;2022-10-16T04:40:52;14.80;99.90
35690;DHT22;26977;44.830;-0.674;2022-10-16T04:43:19;14.80;99.90
35690;DHT22;26977;44.830;-0.674;2022-10-16T04:45:45;14.60;99.90
35690;DHT22;26977;44.830;-0.674;2022-10-16T04:48:11;14.50;99.90
35690;DHT22;26977;44.830;-0.674;2022-10-16T04:50:36;14.50;99.90
35690;DHT22;26977;44.830;-0.674;2022-10-16T04:53:02;14.40;99.90
35690;DHT22;26977;44.830;-0.674;2022-10-16T04:55:27;14.30;99.90
35690;DHT22;26977;44.830;-0.674;2022-10-16T04:57:53;14.30;99.90
35690;DHT22;26977;44.830;-0.674;2022-10-16T05:00:19;14.20;99.90
35690;DHT22;26977;44.830;-0.674;2022-10-16T05:02:44;14.20;99.90
35690;DHT22;26977;44.830;-0.674;2022-10-16T05:05:10;14.20;99.90
35690;DHT22;26977;44.830;-0.674;2022-10-16T05:07:37;14.20;99.90
35690;DHT22;26977;44.830;-0.674;2022-10-16T05:10:03;14.40;99.90
35690;DHT22;26977;44.830;-0.674;2022-10-16T05:12:29;14.30;99.90
35690;DHT22;26977;44.830;-0.674;2022-10-16T05:14:54;14.30;99.90
35690;DHT22;26977;44.830;-0.674;2022-10-16T05:17:24;14.20;99.90
35690;DHT22;26977;44.830;-0.674;2022-10-16T05:19:50;14.20;99.90
35690;DHT22;26977;44.830;-0.674;2022-10-16T05:22:16;14.10;99.90
35690;DHT22;26977;44.830;-0.674;2022-10-16T05:24:42;14.00;99.90
35690;DHT22;26977;44.830;-0.674;2022-10-16T05:27:07;13.90;99.90
35690;DHT22;26977;44.830;-0.674;2022-10-16T05:29:33;13.90;99.90
35690;DHT22;26977;44.830;-0.674;2022-10-16T05:31:58;13.90;99.90
35690;DHT22;26977;44.830;-0.674;2022-10-16T05:34:24;13.90;99.90
35690;DHT22;26977;44.830;-0.674;2022-10-16T05:36:50;13.80;99.90
35690;DHT22;26977;44.830;-0.674;2022-10-16T05:39:16;13.70;99.90
35690;DHT22;26977;44.830;-0.674;2022-10-16T05:41:42;13.70;99.90
35690;DHT22;26977;44.830;-0.674;2022-10-16T05:44:08;13.70;99.90
35690;DHT22;26977;44.830;-0.674;2022-10-16T05:46:34;13.70;99.90
35690;DHT22;26977;44.830;-0.674;2022-10-16T05:49:00;13.60;99.90
35690;DHT22;26977;44.830;-0.674;2022-10-16T05:51:25;13.50;99.90
35690;DHT22;26977;44.830;-0.674;2022-10-16T05:53:52;13.60;99.90
35690;DHT22;26977;44.830;-0.674;2022-10-16T05:56:18;13.60;99.90
35690;DHT22;26977;44.830;-0.674;2022-10-16T05:58:43;13.60;99.90
35690;DHT22;26977;44.830;-0.674;2022-10-16T06:01:14;13.50;99.90
35690;DHT22;26977;44.830;-0.674;2022-10-16T06:03:41;13.60;99.90
35690;DHT22;26977;44.830;-0.674;2022-10-16T06:06:08;13.70;99.90
35690;DHT22;26977;44.830;-0.674;2022-10-16T06:08:34;13.70;99.90
35690;DHT22;26977;44.830;-0.674;2022-10-16T06:11:05;13.70;99.90
35690;DHT22;26977;44.830;-0.674;2022-10-16T06:13:32;13.60;99.90
35690;DHT22;26977;44.830;-0.674;2022-10-16T06:16:09;13.60;99.90
35690;DHT22;26977;44.830;-0.674;2022-10-16T06:18:35;13.50;99.90
35690;DHT22;26977;44.830;-0.674;2022-10-16T06:21:11;13.50;99.90
35690;DHT22;26977;44.830;-0.674;2022-10-16T06:23:37;13.50;99.90
35690;DHT22;26977;44.830;-0.674;2022-10-16T06:26:11;13.50;99.90
35690;DHT22;26977;44.830;-0.674;2022-10-16T06:28:40;13.50;99.90
35690;DHT22;26977;44.830;-0.674;2022-10-16T06:31:07;13.50;99.90
35690;DHT22;26977;44.830;-0.674;2022-10-16T06:33:33;13.50;99.90
35690;DHT22;26977;44.830;-0.674;2022-10-16T06:38:29;13.60;99.90
35690;DHT22;26977;44.830;-0.674;2022-10-16T06:40:54;13.60;99.90
35690;DHT22;26977;44.830;-0.674;2022-10-16T06:43:20;13.60;99.90
35690;DHT22;26977;44.830;-0.674;2022-10-16T06:45:53;13.60;99.90
35690;DHT22;26977;44.830;-0.674;2022-10-16T06:48:19;13.70;99.90
35690;DHT22;26977;44.830;-0.674;2022-10-16T06:51:28;13.70;99.90
35690;DHT22;26977;44.830;-0.674;2022-10-16T06:53:51;13.70;99.90
35690;DHT22;26977;44.830;-0.674;2022-10-16T06:56:20;13.70;99.90
35690;DHT22;26977;44.830;-0.674;2022-10-16T06:58:47;13.90;99.90
35690;DHT22;26977;44.830;-0.674;2022-10-16T07:01:14;14.00;99.90
35690;DHT22;26977;44.830;-0.674;2022-10-16T07:03:41;14.20;99.90
35690;DHT22;26977;44.830;-0.674;2022-10-16T07:06:09;14.30;99.90
35690;DHT22;26977;44.830;-0.674;2022-10-16T07:08:37;14.50;99.90
35690;DHT22;26977;44.830;-0.674;2022-10-16T07:11:12;14.60;99.90
35690;DHT22;26977;44.830;-0.674;2022-10-16T07:13:39;14.70;99.90
35690;DHT22;26977;44.830;-0.674;2022-10-16T07:16:17;14.90;99.90
35690;DHT22;26977;44.830;-0.674;2022-10-16T07:18:43;15.00;99.90
35690;DHT22;26977;44.830;-0.674;2022-10-16T07:21:16;15.10;99.90
35690;DHT22;26977;44.830;-0.674;2022-10-16T07:23:42;15.20;99.90
35690;DHT22;26977;44.830;-0.674;2022-10-16T07:26:09;15.30;99.90
35690;DHT22;26977;44.830;-0.674;2022-10-16T07:28:36;15.30;99.90
35690;DHT22;26977;44.830;-0.674;2022-10-16T07:31:07;15.40;99.90
35690;DHT22;26977;44.830;-0.674;2022-10-16T07:33:34;15.40;99.90
35690;DHT22;26977;44.830;-0.674;2022-10-16T07:36:00;15.50;99.90
35690;DHT22;26977;44.830;-0.674;2022-10-16T07:38:26;15.60;99.90
35690;DHT22;26977;44.830;-0.674;2022-10-16T07:41:19;15.60;99.90
35690;DHT22;26977;44.830;-0.674;2022-10-16T07:43:51;15.70;99.90
35690;DHT22;26977;44.830;-0.674;2022-10-16T07:46:18;15.80;99.90
35690;DHT22;26977;44.830;-0.674;2022-10-16T07:48:45;15.90;99.90
35690;DHT22;26977;44.830;-0.674;2022-10-16T07:51:20;16.00;99.90
35690;DHT22;26977;44.830;-0.674;2022-10-16T07:53:47;16.10;99.90
35690;DHT22;26977;44.830;-0.674;2022-10-16T07:56:13;16.20;99.90
35690;DHT22;26977;44.830;-0.674;2022-10-16T07:58:39;16.30;99.90
35690;DHT22;26977;44.830;-0.674;2022-10-16T08:01:12;16.40;99.90
35690;DHT22;26977;44.830;-0.674;2022-10-16T08:03:41;16.50;99.90
35690;DHT22;26977;44.830;-0.674;2022-10-16T08:06:07;16.60;99.90
35690;DHT22;26977;44.830;-0.674;2022-10-16T08:08:32;16.70;99.90
35690;DHT22;26977;44.830;-0.674;2022-10-16T08:10:58;16.80;99.90
35690;DHT22;26977;44.830;-0.674;2022-10-16T08:13:24;16.90;99.90
35690;DHT22;26977;44.830;-0.674;2022-10-16T08:15:49;16.90;99.90
35690;DHT22;26977;44.830;-0.674;2022-10-16T08:18:16;17.00;99.90
35690;DHT22;26977;44.830;-0.674;2022-10-16T08:20:42;17.10;99.90
35690;DHT22;26977;44.830;-0.674;2022-10-16T08:23:10;17.10;99.90
35690;DHT22;26977;44.830;-0.674;2022-10-16T08:25:47;17.10;99.90
35690;DHT22;26977;44.830;-0.674;2022-10-16T08:28:13;17.10;99.90
35690;DHT22;26977;44.830;-0.674;2022-10-16T08:30:38;17.20;99.90
35690;DHT22;26977;44.830;-0.674;2022-10-16T08:33:05;17.30;99.90
35690;DHT22;26977;44.830;-0.674;2022-10-16T08:35:31;17.40;99.90
35690;DHT22;26977;44.830;-0.674;2022-10-16T08:37:57;17.50;99.90
35690;DHT22;26977;44.830;-0.674;2022-10-16T08:40:26;17.70;99.90
35690;DHT22;26977;44.830;-0.674;2022-10-16T08:48:43;18.00;99.90
35690;DHT22;26977;44.830;-0.674;2022-10-16T08:51:14;18.10;99.90
35690;DHT22;26977;44.830;-0.674;2022-10-16T08:56:12;18.30;99.90
35690;DHT22;26977;44.830;-0.674;2022-10-16T08:58:38;18.30;99.90
35690;DHT22;26977;44.830;-0.674;2022-10-16T09:01:11;18.30;99.90
35690;DHT22;26977;44.830;-0.674;2022-10-16T09:09:15;18.50;99.90
35690;DHT22;26977;44.830;-0.674;2022-10-16T09:22:41;18.90;99.90
35690;DHT22;26977;44.830;-0.674;2022-10-16T09:25:19;19.00;99.90
35690;DHT22;26977;44.830;-0.674;2022-10-16T09:27:48;19.20;99.90
35690;DHT22;26977;44.830;-0.674;2022-10-16T09:30:19;19.30;99.90
35690;DHT22;26977;44.830;-0.674;2022-10-16T09:32:48;19.40;99.90
35690;DHT22;26977;44.830;-0.674;2022-10-16T09:35:21;19.50;99.90
35690;DHT22;26977;44.830;-0.674;2022-10-16T09:37:52;19.60;99.90
35690;DHT22;26977;44.830;-0.674;2022-10-16T09:40:32;19.60;99.90
35690;DHT22;26977;44.830;-0.674;2022-10-16T09:45:54;19.80;99.90
35690;DHT22;26977;44.830;-0.674;2022-10-16T09:48:21;20.00;99.90
35690;DHT22;26977;44.830;-0.674;2022-10-16T09:50:56;20.10;99.90
35690;DHT22;26977;44.830;-0.674;2022-10-16T09:53:22;20.10;99.90
35690;DHT22;26977;44.830;-0.674;2022-10-16T09:55:49;20.20;99.90
35690;DHT22;26977;44.830;-0.674;2022-10-16T09:58:21;20.20;99.90
35690;DHT22;26977;44.830;-0.674;2022-10-16T10:00:54;20.20;99.90
35690;DHT22;26977;44.830;-0.674;2022-10-16T10:03:37;20.10;99.90
35690;DHT22;26977;44.830;-0.674;2022-10-16T10:11:42;20.40;99.90
35690;DHT22;26977;44.830;-0.674;2022-10-16T10:17:14;20.50;99.90
35690;DHT22;26977;44.830;-0.674;2022-10-16T10:22:19;20.90;99.90
35690;DHT22;26977;44.830;-0.674;2022-10-16T10:27:48;21.20;99.90
35690;DHT22;26977;44.830;-0.674;2022-10-16T10:33:12;21.40;99.90
35690;DHT22;26977;44.830;-0.674;2022-10-16T10:46:36;21.80;99.90
35690;DHT22;26977;44.830;-0.674;2022-10-16T10:52:36;22.30;99.90
35690;DHT22;26977;44.830;-0.674;2022-10-16T10:55:28;22.50;99.90
35690;DHT22;26977;44.830;-0.674;2022-10-16T11:01:15;22.80;99.90
35690;DHT22;26977;44.830;-0.674;2022-10-16T11:06:44;23.20;99.90
35690;DHT22;26977;44.830;-0.674;2022-10-16T11:09:13;23.30;99.90
35690;DHT22;26977;44.830;-0.674;2022-10-16T11:11:45;23.40;99.90
35690;DHT22;26977;44.830;-0.674;2022-10-16T11:16:51;23.50;99.90
35690;DHT22;26977;44.830;-0.674;2022-10-16T11:22:19;23.70;99.90
35690;DHT22;26977;44.830;-0.674;2022-10-16T11:30:30;24.10;99.90
35690;DHT22;26977;44.830;-0.674;2022-10-16T11:33:10;24.20;99.90
35690;DHT22;26977;44.830;-0.674;2022-10-16T11:38:30;24.30;99.90
35690;DHT22;26977;44.830;-0.674;2022-10-16T11:41:04;24.40;99.90
35690;DHT22;26977;44.830;-0.674;2022-10-16T11:43:37;24.40;99.90
35690;DHT22;26977;44.830;-0.674;2022-10-16T11:46:24;24.50;99.90
35690;DHT22;26977;44.830;-0.674;2022-10-16T11:49:09;24.60;99.90
35690;DHT22;26977;44.830;-0.674;2022-10-16T11:51:45;24.70;99.90
35690;DHT22;26977;44.830;-0.674;2022-10-16T11:54:38;24.80;99.90
35690;DHT22;26977;44.830;-0.674;2022-10-16T11:57:19;24.80;99.90
35690;DHT22;26977;44.830;-0.674;2022-10-16T12:08:20;25.40;99.90
35690;DHT22;26977;44.830;-0.674;2022-10-16T12:10:47;25.40;99.90
35690;DHT22;26977;44.830;-0.674;2022-10-16T12:13:29;25.60;99.90
35690;DHT22;26977;44.830;-0.674;2022-10-16T12:18:38;25.70;99.70
35690;DHT22;26977;44.830;-0.674;2022-10-16T12:21:05;26.00;98.70
35690;DHT22;26977;44.830;-0.674;2022-10-16T12:23:36;26.10;97.80
35690;DHT22;26977;44.830;-0.674;2022-10-16T12:26:04;26.30;97.60
35690;DHT22;26977;44.830;-0.674;2022-10-16T12:28:31;26.40;97.50
35690;DHT22;26977;44.830;-0.674;2022-10-16T12:31:06;26.60;96.20
35690;DHT22;26977;44.830;-0.674;2022-10-16T12:33:41;26.70;94.50
35690;DHT22;26977;44.830;-0.674;2022-10-16T12:36:15;27.00;93.40
35690;DHT22;26977;44.830;-0.674;2022-10-16T12:38:50;27.30;93.60
35690;DHT22;26977;44.830;-0.674;2022-10-16T12:41:35;27.60;92.80
35690;DHT22;26977;44.830;-0.674;2022-10-16T12:44:05;27.70;92.20
35690;DHT22;26977;44.830;-0.674;2022-10-16T12:49:37;27.60;90.80
35690;DHT22;26977;44.830;-0.674;2022-10-16T12:52:04;27.80;91.30
35690;DHT22;26977;44.830;-0.674;2022-10-16T13:20:35;27.30;89.10
35690;DHT22;26977;44.830;-0.674;2022-10-16T13:25:49;27.60;89.40
35690;DHT22;26977;44.830;-0.674;2022-10-16T13:28:21;28.20;89.10
35690;DHT22;26977;44.830;-0.674;2022-10-16T13:30:53;28.60;89.10
35690;DHT22;26977;44.830;-0.674;2022-10-16T13:33:37;29.10;87.70
35690;DHT22;26977;44.830;-0.674;2022-10-16T13:36:05;29.30;83.80
35690;DHT22;26977;44.830;-0.674;2022-10-16T13:38:34;29.20;83.70
35690;DHT22;26977;44.830;-0.674;2022-10-16T13:41:03;30.50;82.50
35690;DHT22;26977;44.830;-0.674;2022-10-16T13:43:34;31.90;80.30
35690;DHT22;26977;44.830;-0.674;2022-10-16T13:46:06;32.60;75.60
35690;DHT22;26977;44.830;-0.674;2022-10-16T13:48:33;33.40;73.90
35690;DHT22;26977;44.830;-0.674;2022-10-16T13:51:33;33.30;73.50
35690;DHT22;26977;44.830;-0.674;2022-10-16T13:53:51;33.90;73.90
35690;DHT22;26977;44.830;-0.674;2022-10-16T13:56:20;34.40;70.90
35690;DHT22;26977;44.830;-0.674;2022-10-16T13:58:57;34.20;70.50
35690;DHT22;26977;44.830;-0.674;2022-10-16T14:01:26;34.30;68.60
35690;DHT22;26977;44.830;-0.674;2022-10-16T14:03:59;34.10;68.90
35690;DHT22;26977;44.830;-0.674;2022-10-16T14:06:26;33.10;68.90
35690;DHT22;26977;44.830;-0.674;2022-10-16T14:11:47;32.60;69.30
35690;DHT22;26977;44.830;-0.674;2022-10-16T14:14:14;32.00;69.80
35690;DHT22;26977;44.830;-0.674;2022-10-16T14:16:44;32.20;70.00
35690;DHT22;26977;44.830;-0.674;2022-10-16T14:19:24;32.30;68.90
35690;DHT22;26977;44.830;-0.674;2022-10-16T14:21:51;32.60;69.50
35690;DHT22;26977;44.830;-0.674;2022-10-16T14:26:57;32.80;70.80
35690;DHT22;26977;44.830;-0.674;2022-10-16T14:29:24;33.30;68.00
35690;DHT22;26977;44.830;-0.674;2022-10-16T14:32:05;33.60;67.60
35690;DHT22;26977;44.830;-0.674;2022-10-16T14:34:34;33.30;67.80
35690;DHT22;26977;44.830;-0.674;2022-10-16T14:37:24;33.40;66.70
35690;DHT22;26977;44.830;-0.674;2022-10-16T14:39:51;34.10;67.80
35690;DHT22;26977;44.830;-0.674;2022-10-16T14:42:18;33.50;66.60
35690;DHT22;26977;44.830;-0.674;2022-10-16T14:44:46;34.00;66.90
35690;DHT22;26977;44.830;-0.674;2022-10-16T14:47:17;34.10;66.70
35690;DHT22;26977;44.830;-0.674;2022-10-16T14:49:48;32.70;67.40
35690;DHT22;26977;44.830;-0.674;2022-10-16T14:52:14;32.20;67.30
35690;DHT22;26977;44.830;-0.674;2022-10-16T14:54:40;32.70;68.00
35690;DHT22;26977;44.830;-0.674;2022-10-16T14:57:19;32.80;67.10
35690;DHT22;26977;44.830;-0.674;2022-10-16T14:59:46;32.30;67.80
35690;DHT22;26977;44.830;-0.674;2022-10-16T15:04:54;30.90;69.60
35690;DHT22;26977;44.830;-0.674;2022-10-16T15:07:20;30.40;71.60
35690;DHT22;26977;44.830;-0.674;2022-10-16T15:09:46;30.00;72.10
35690;DHT22;26977;44.830;-0.674;2022-10-16T15:12:12;30.00;71.60
35690;DHT22;26977;44.830;-0.674;2022-10-16T15:14:38;30.00;72.00
35690;DHT22;26977;44.830;-0.674;2022-10-16T15:17:04;30.10;72.80
35690;DHT22;26977;44.830;-0.674;2022-10-16T15:19:30;30.00;72.80
35690;DHT22;26977;44.830;-0.674;2022-10-16T15:21:56;30.00;72.60
35690;DHT22;26977;44.830;-0.674;2022-10-16T15:24:22;29.90;73.40
35690;DHT22;26977;44.830;-0.674;2022-10-16T15:26:47;29.80;75.70
35690;DHT22;26977;44.830;-0.674;2022-10-16T15:29:14;29.70;76.40
35690;DHT22;26977;44.830;-0.674;2022-10-16T15:31:40;29.50;76.00
35690;DHT22;26977;44.830;-0.674;2022-10-16T15:34:09;29.20;75.80
35690;DHT22;26977;44.830;-0.674;2022-10-16T15:36:36;29.20;79.20
35690;DHT22;26977;44.830;-0.674;2022-10-16T15:39:12;29.40;80.20
35690;DHT22;26977;44.830;-0.674;2022-10-16T15:41:39;29.60;81.10
35690;DHT22;26977;44.830;-0.674;2022-10-16T15:44:04;30.00;82.00
35690;DHT22;26977;44.830;-0.674;2022-10-16T15:46:30;30.30;81.10
35690;DHT22;26977;44.830;-0.674;2022-10-16T15:48:57;31.20;80.40
35690;DHT22;26977;44.830;-0.674;2022-10-16T15:51:25;31.60;80.50
35690;DHT22;26977;44.830;-0.674;2022-10-16T15:53:55;31.60;78.80
35690;DHT22;26977;44.830;-0.674;2022-10-16T15:56:22;32.10;78.50
35690;DHT22;26977;44.830;-0.674;2022-10-16T15:58:48;32.70;77.70
35690;DHT22;26977;44.830;-0.674;2022-10-16T16:01:14;33.00;77.10
35690;DHT22;26977;44.830;-0.674;2022-10-16T16:03:39;33.60;74.90
35690;DHT22;26977;44.830;-0.674;2022-10-16T16:06:10;34.00;77.20
35690;DHT22;26977;44.830;-0.674;2022-10-16T16:08:37;33.60;76.60
35690;DHT22;26977;44.830;-0.674;2022-10-16T16:11:12;33.60;77.10
35690;DHT22;26977;44.830;-0.674;2022-10-16T16:13:37;33.50;74.60
35690;DHT22;26977;44.830;-0.674;2022-10-16T16:16:11;33.70;74.60
35690;DHT22;26977;44.830;-0.674;2022-10-16T16:18:37;33.50;75.00
35690;DHT22;26977;44.830;-0.674;2022-10-16T16:21:04;33.80;75.40
35690;DHT22;26977;44.830;-0.674;2022-10-16T16:23:30;33.50;74.80
35690;DHT22;26977;44.830;-0.674;2022-10-16T16:26:10;33.20;74.30
35690;DHT22;26977;44.830;-0.674;2022-10-16T16:28:36;33.10;75.80
35690;DHT22;26977;44.830;-0.674;2022-10-16T16:31:03;31.90;76.90
35690;DHT22;26977;44.830;-0.674;2022-10-16T16:33:29;30.70;79.80
35690;DHT22;26977;44.830;-0.674;2022-10-16T16:36:03;29.60;81.60
35690;DHT22;26977;44.830;-0.674;2022-10-16T16:38:32;28.60;83.40
35690;DHT22;26977;44.830;-0.674;2022-10-16T16:40:58;27.90;86.30
35690;DHT22;26977;44.830;-0.674;2022-10-16T16:43:25;27.20;88.40
35690;DHT22;26977;44.830;-0.674;2022-10-16T16:45:51;26.70;89.80
35690;DHT22;26977;44.830;-0.674;2022-10-16T16:48:17;26.30;90.60
35690;DHT22;26977;44.830;-0.674;2022-10-16T16:50:43;25.80;91.30
35690;DHT22;26977;44.830;-0.674;2022-10-16T16:53:08;25.40;91.70
35690;DHT22;26977;44.830;-0.674;2022-10-16T16:55:34;25.10;92.70
35690;DHT22;26977;44.830;-0.674;2022-10-16T16:58:00;24.80;93.10
35690;DHT22;26977;44.830;-0.674;2022-10-16T17:00:26;24.50;93.80
35690;DHT22;26977;44.830;-0.674;2022-10-16T17:02:51;24.20;94.20
35690;DHT22;26977;44.830;-0.674;2022-10-16T17:05:18;23.90;94.60
35690;DHT22;26977;44.830;-0.674;2022-10-16T17:07:45;23.70;94.80
35690;DHT22;26977;44.830;-0.674;2022-10-16T17:10:10;23.50;95.40
35690;DHT22;26977;44.830;-0.674;2022-10-16T17:12:36;23.30;96.00
35690;DHT22;26977;44.830;-0.674;2022-10-16T17:15:03;23.10;96.50
35690;DHT22;26977;44.830;-0.674;2022-10-16T17:17:28;22.90;96.90
35690;DHT22;26977;44.830;-0.674;2022-10-16T17:19:54;22.70;97.70
35690;DHT22;26977;44.830;-0.674;2022-10-16T17:22:20;22.50;98.00
35690;DHT22;26977;44.830;-0.674;2022-10-16T17:24:49;22.30;98.50
35690;DHT22;26977;44.830;-0.674;2022-10-16T17:27:17;22.20;98.60
35690;DHT22;26977;44.830;-0.674;2022-10-16T17:29:42;22.10;99.00
35690;DHT22;26977;44.830;-0.674;2022-10-16T17:32:08;22.10;99.20
35690;DHT22;26977;44.830;-0.674;2022-10-16T17:34:34;22.00;99.30
35690;DHT22;26977;44.830;-0.674;2022-10-16T17:37:00;21.90;99.50
35690;DHT22;26977;44.830;-0.674;2022-10-16T17:39:25;21.90;99.50
35690;DHT22;26977;44.830;-0.674;2022-10-16T17:41:51;21.90;99.90
35690;DHT22;26977;44.830;-0.674;2022-10-16T17:44:18;22.00;99.90
35690;DHT22;26977;44.830;-0.674;2022-10-16T17:46:50;22.10;99.60
35690;DHT22;26977;44.830;-0.674;2022-10-16T17:49:16;22.00;99.80
35690;DHT22;26977;44.830;-0.674;2022-10-16T17:51:43;22.00;99.70
35690;DHT22;26977;44.830;-0.674;2022-10-16T17:54:09;21.90;99.70